Time;durP1;ratioP1;P1;durP2;ratioP2;P2;SDS_P1;SDS_P2;PMS_P1;PMS_P2;Temp;Humidity;BMP_temperature;BMP_pressure;BME280_temperature;BME280_humidity;BME280_pressure;Samples;Min_cycle;Max_cycle;Signal;HPM_P1;HPM_P2
2022/11/12 07:06:19;;;;;;;12.45;11.18;;;;;;;5.93;89.06;102869.53;5315176;27;1222929;-73
2022/11/12 07:08:50;;;;;;;13.68;10.30;;;;;;;5.81;89.95;102869.28;5323977;27;20042;-74
2022/11/12 07:11:21;;;;;;;14.63;10.57;;;;;;;5.91;89.78;102868.06;5321835;28;20024;-74
2022/11/12 07:13:53;;;;;;;12.38;10.10;;;;;;;5.93;90.23;102861.28;5322353;28;20030;-74
2022/11/12 07:16:24;;;;;;;12.25;10.23;;;;;;;5.96;90.05;102876.56;5322398;28;20089;-74
2022/11/12 07:18:55;;;;;;;11.15;9.63;;;;;;;5.98;90.31;102871.66;5321666;28;20020;-73
2022/11/12 07:21:27;;;;;;;13.70;9.93;;;;;;;6.18;90.31;102866.19;5322491;28;20077;-73
2022/11/12 07:23:58;;;;;;;11.07;9.98;;;;;;;6.10;90.29;102868.09;5337783;28;20023;-73
2022/11/12 07:26:29;;;;;;;12.88;10.00;;;;;;;6.12;89.96;102872.56;5337078;28;20122;-76
2022/11/12 07:29:00;;;;;;;11.38;10.18;;;;;;;6.36;91.65;102871.91;5342009;28;20023;-81
2022/11/12 07:31:32;;;;;;;11.80;8.88;;;;;;;6.33;90.74;102864.06;5324660;28;20027;-82
2022/11/12 07:34:03;;;;;;;11.60;9.23;;;;;;;6.41;90.08;102866.59;5327212;28;20028;-75
2022/11/12 07:36:34;;;;;;;14.50;12.98;;;;;;;6.43;89.84;102874.69;5335289;27;20023;-75
2022/11/12 07:39:06;;;;;;;13.00;10.82;;;;;;;6.48;90.09;102884.00;5321331;28;20081;-74
2022/11/12 07:41:37;;;;;;;11.25;10.15;;;;;;;6.43;89.57;102877.44;5332911;27;20023;-74
2022/11/12 07:44:09;;;;;;;12.15;9.93;;;;;;;6.52;89.77;102881.69;5322061;28;20374;-75
2022/11/12 07:46:40;;;;;;;11.23;10.02;;;;;;;6.52;90.25;102882.53;5321321;28;20020;-75
2022/11/12 07:49:11;;;;;;;11.40;9.88;;;;;;;6.59;90.56;102884.41;5325607;28;20031;-76
2022/11/12 07:51:43;;;;;;;24.60;20.30;;;;;;;6.61;90.40;102883.16;5329867;28;20039;-75
2022/11/12 07:54:14;;;;;;;12.50;10.52;;;;;;;6.64;90.17;102884.63;5341621;28;20061;-76
2022/11/12 07:56:45;;;;;;;12.93;10.20;;;;;;;6.67;90.04;102878.69;5340317;27;20020;-76
2022/11/12 07:59:16;;;;;;;11.48;10.15;;;;;;;6.72;90.36;102887.16;5331855;28;20024;-75
2022/11/12 08:01:48;;;;;;;12.85;10.60;;;;;;;6.84;90.45;102890.13;5327452;27;20443;-76
2022/11/12 08:04:19;;;;;;;10.48;9.50;;;;;;;6.86;89.86;102891.59;5338916;28;20059;-75
2022/11/12 08:06:51;;;;;;;11.35;10.18;;;;;;;6.88;89.63;102897.75;5331236;27;20020;-75
2022/11/12 08:09:22;;;;;;;11.05;9.50;;;;;;;6.90;89.60;102889.25;5321050;28;20028;-80
2022/11/12 08:11:53;;;;;;;11.25;10.07;;;;;;;6.99;89.38;102895.41;5330779;28;20031;-77
2022/11/12 08:14:25;;;;;;;13.90;9.80;;;;;;;7.02;89.74;102901.31;5334658;28;20031;-79
2022/11/12 08:16:56;;;;;;;11.70;10.05;;;;;;;7.05;89.68;102889.84;5331244;28;20050;-73
2022/11/12 08:19:27;;;;;;;10.50;9.40;;;;;;;7.06;90.03;102907.28;5307356;28;20028;-72
2022/11/12 08:21:58;;;;;;;11.50;10.40;;;;;;;7.09;89.47;102909.59;5314194;28;20470;-75
2022/11/12 08:24:30;;;;;;;13.30;9.93;;;;;;;7.19;89.70;102912.75;5314408;28;20045;-74
2022/11/12 08:27:01;;;;;;;13.43;11.35;;;;;;;7.23;89.88;102910.38;5308309;28;20051;-72
2022/11/12 08:29:32;;;;;;;11.80;10.20;;;;;;;7.31;89.38;102913.78;5307746;28;20032;-73
2022/11/12 08:32:04;;;;;;;12.05;10.23;;;;;;;7.46;89.70;102921.78;5321390;28;20028;-71
2022/11/12 08:34:40;;;;;;;10.20;9.20;;;;;;;7.44;89.25;102918.41;5310785;28;20063;-73
2022/11/12 08:37:12;;;;;;;11.13;9.20;;;;;;;7.50;89.09;102911.16;5322142;28;20024;-73
2022/11/12 08:39:43;;;;;;;17.60;11.38;;;;;;;7.48;88.48;102913.28;5315902;28;20538;-72
2022/11/12 08:42:14;;;;;;;10.88;9.52;;;;;;;7.48;88.42;102908.59;5326946;27;20020;-73
2022/11/12 08:44:46;;;;;;;10.40;9.32;;;;;;;7.55;88.37;102911.34;5312878;28;20076;-72
2022/11/12 08:47:17;;;;;;;11.27;9.73;;;;;;;7.67;88.73;102912.38;5308010;28;20030;-77
2022/11/12 08:49:48;;;;;;;11.55;10.10;;;;;;;7.70;88.91;102917.44;5326495;28;20023;-72
2022/11/12 08:52:19;;;;;;;11.60;10.40;;;;;;;7.78;89.04;102921.88;5326926;28;20489;-76
2022/11/12 08:54:51;;;;;;;11.98;10.70;;;;;;;7.82;89.35;102914.81;5322375;28;20035;-72
2022/11/12 08:57:22;;;;;;;12.13;10.38;;;;;;;7.84;88.79;102923.72;5326708;27;20383;-73
2022/11/12 08:59:53;;;;;;;111.78;94.55;;;;;;;7.93;89.46;102916.03;5326551;27;20103;-79
2022/11/12 09:02:25;;;;;;;19.35;14.48;;;;;;;7.94;89.19;102906.69;5327177;28;20024;-78
2022/11/12 09:04:56;;;;;;;14.85;11.82;;;;;;;8.01;89.09;102910.25;5325282;28;20116;-79
2022/11/12 09:07:27;;;;;;;12.25;10.77;;;;;;;8.09;88.62;102903.63;5321244;28;20020;-77
2022/11/12 09:09:59;;;;;;;14.25;10.73;;;;;;;8.14;88.63;102906.56;5317841;28;20156;-77
2022/11/12 09:12:31;;;;;;;12.75;10.60;;;;;;;8.19;88.43;102912.25;5323039;28;20369;-77
2022/11/12 09:15:03;;;;;;;11.25;10.00;;;;;;;8.31;89.06;102909.59;5325434;28;20030;-76
2022/11/12 09:17:35;;;;;;;12.18;9.20;;;;;;;8.33;87.97;102910.22;5315082;28;20054;-72
2022/11/12 09:20:06;;;;;;;11.45;9.57;;;;;;;8.45;87.53;102912.09;5327427;28;20039;-77
2022/11/12 09:22:38;;;;;;;13.32;10.82;;;;;;;8.51;87.73;102915.00;5322847;28;20058;-78
2022/11/12 09:25:09;;;;;;;13.52;9.88;;;;;;;8.55;87.16;102914.34;5308966;28;20028;-76
2022/11/12 09:27:40;;;;;;;11.02;9.38;;;;;;;8.71;86.77;102918.47;5323138;28;20383;-71
2022/11/12 09:30:12;;;;;;;14.18;11.40;;;;;;;8.80;86.39;102913.50;5324796;28;20074;-71
2022/11/12 09:32:43;;;;;;;14.35;12.20;;;;;;;8.77;85.71;102909.28;5326073;28;20046;-71
2022/11/12 09:35:14;;;;;;;12.73;10.25;;;;;;;8.90;86.70;102911.06;5326590;28;20043;-73
2022/11/12 09:37:46;;;;;;;11.18;9.95;;;;;;;8.91;86.21;102909.97;5315994;28;20036;-73
2022/11/12 09:40:19;;;;;;;10.55;9.55;;;;;;;8.93;85.91;102910.59;5324110;28;20027;-72
2022/11/12 09:42:52;;;;;;;11.40;10.20;;;;;;;9.04;85.43;102914.53;5324267;28;20074;-72
2022/11/12 09:45:28;;;;;;;10.65;9.65;;;;;;;9.10;85.16;102908.06;5325402;28;20394;-72
2022/11/12 09:48:07;;;;;;;11.45;10.25;;;;;;;9.20;86.18;102907.53;5308939;28;20031;-73
2022/11/12 09:50:49;;;;;;;11.50;10.30;;;;;;;9.29;85.64;102912.53;5326110;28;20465;-73
2022/11/12 09:53:38;;;;;;;10.55;8.80;;;;;;;9.42;84.55;102913.47;5325852;28;20032;-74
2022/11/12 09:56:12;;;;;;;12.48;9.88;;;;;;;9.44;82.82;102912.16;5325947;28;20051;-73
2022/11/12 09:58:43;;;;;;;9.90;8.88;;;;;;;9.52;82.80;102911.84;5304937;28;20024;-72
2022/11/12 10:01:21;;;;;;;11.20;8.75;;;;;;;9.54;83.04;102909.69;5309326;28;20101;-75
2022/11/12 10:04:13;;;;;;;9.93;8.88;;;;;;;9.63;83.21;102907.44;5304648;28;20077;-73
2022/11/12 10:06:55;;;;;;;12.68;10.10;;;;;;;9.73;83.67;102912.41;5304137;28;20039;-75
2022/11/12 10:09:36;;;;;;;11.93;10.00;;;;;;;9.82;83.93;102905.47;5303929;28;20074;-74
2022/11/12 10:12:39;;;;;;;10.20;9.20;;;;;;;9.93;83.10;102901.91;5304887;28;20089;-72
2022/11/12 10:18:36;;;;;;;10.82;9.15;;;;;;;10.10;81.37;102899.31;5303347;28;20024;-71
2022/11/12 10:21:40;;;;;;;9.50;7.90;;;;;;;10.20;81.03;102904.25;5302447;28;20387;-72
2022/11/12 10:24:11;;;;;;;10.30;8.48;;;;;;;10.25;79.54;102896.06;5303415;28;20066;-74
2022/11/12 10:26:43;;;;;;;9.75;8.38;;;;;;;10.34;78.74;102893.84;5302707;28;20471;-74
2022/11/12 10:29:37;;;;;;;10.20;8.02;;;;;;;10.37;78.62;102894.22;5305769;28;20032;-74
2022/11/12 10:32:14;;;;;;;11.68;8.00;;;;;;;10.43;78.57;102887.72;5323870;28;20443;-73
2022/11/12 10:34:45;;;;;;;13.25;11.85;;;;;;;10.52;77.42;102890.16;5303947;28;20448;-75
2022/11/12 10:37:27;;;;;;;8.68;7.45;;;;;;;10.72;81.40;102901.75;5314927;28;20032;-78
2022/11/12 10:39:59;;;;;;;8.07;6.20;;;;;;;11.01;86.20;102888.81;5324639;28;20027;-79
2022/11/12 10:42:30;;;;;;;8.63;6.97;;;;;;;11.24;87.17;102892.66;5306863;28;20065;-75
2022/11/12 10:45:21;;;;;;;10.40;8.27;;;;;;;11.06;80.62;102890.84;5310787;28;20080;-77
2022/11/12 10:47:53;;;;;;;10.82;8.23;;;;;;;11.23;81.71;102889.03;5309504;28;20064;-74
2022/11/12 10:50:35;;;;;;;9.48;8.30;;;;;;;11.13;81.20;102887.97;5324738;28;20135;-76
2022/11/12 10:53:10;;;;;;;9.88;8.95;;;;;;;11.19;79.58;102885.03;5323133;28;20032;-75
2022/11/12 10:55:56;;;;;;;9.77;8.02;;;;;;;11.41;82.17;102878.84;5305446;28;20020;-75
2022/11/12 10:58:27;;;;;;;9.35;8.00;;;;;;;11.46;80.22;102879.78;5312556;28;20027;-75
2022/11/12 11:01:06;;;;;;;8.55;7.43;;;;;;;11.73;84.02;102873.63;5322851;28;20020;-75
2022/11/12 11:03:46;;;;;;;9.18;7.20;;;;;;;11.77;82.26;102862.88;5319543;28;20027;-76
2022/11/12 11:06:24;;;;;;;32.08;28.75;;;;;;;11.81;79.59;102862.16;5312860;28;20505;-76
2022/11/12 11:09:13;;;;;;;15.27;13.68;;;;;;;11.86;78.06;102859.50;5302991;28;20107;-75
2022/11/12 11:11:50;;;;;;;10.05;8.55;;;;;;;11.82;77.83;102857.44;5303562;28;20020;-73
2022/11/12 11:14:22;;;;;;;8.32;7.50;;;;;;;11.82;74.84;102861.03;5303529;28;20413;-80
2022/11/12 11:16:55;;;;;;;10.07;8.35;;;;;;;12.06;78.29;102872.91;5303778;28;20070;-80
2022/11/12 11:19:37;;;;;;;10.73;8.32;;;;;;;12.12;79.18;102869.13;5309702;28;20036;-84
2022/11/12 11:22:26;;;;;;;9.20;8.25;;;;;;;12.15;75.90;102870.56;5314245;28;20020;-86
2022/11/12 11:25:18;;;;;;;8.90;7.82;;;;;;;12.13;74.53;102869.97;5321883;28;20070;-78
2022/11/12 11:28:10;;;;;;;8.52;7.70;;;;;;;12.12;73.88;102859.97;5306976;28;20032;-83
2022/11/12 11:31:01;;;;;;;8.32;7.45;;;;;;;12.16;73.07;102861.13;5304545;28;20032;-84
2022/11/12 11:33:56;;;;;;;8.55;7.53;;;;;;;12.17;73.60;102852.53;5307544;28;20023;-81
2022/11/12 11:36:53;;;;;;;9.23;7.20;;;;;;;12.22;71.99;102862.03;5324856;28;20062;-76
2022/11/12 11:39:38;;;;;;;;;;;;;;;12.30;76.85;102854.16;5324878;28;20475;-75
2022/11/12 11:42:59;;;;;;;8.75;7.90;;;;;;;12.52;74.42;102850.59;5313610;28;20035;-72
2022/11/12 11:45:52;;;;;;;24.73;19.88;;;;;;;12.58;71.30;102849.59;5302388;28;20063;-74
2022/11/12 11:48:53;;;;;;;10.52;9.43;;;;;;;12.74;72.52;102845.09;5310008;28;20040;-73
2022/11/12 11:51:46;;;;;;;35.50;29.98;;;;;;;12.89;73.43;102827.78;5308919;28;20441;-71
2022/11/12 11:54:32;;;;;;;7.60;6.38;;;;;;;12.87;70.73;102830.78;5309126;28;20032;-76
2022/11/12 11:57:11;;;;;;;6.57;5.97;;;;;;;12.92;70.46;102830.88;5326826;28;20024;-72
2022/11/12 12:00:00;;;;;;;7.80;6.43;;;;;;;12.98;71.62;102824.25;5327622;28;20032;-75
2022/11/12 12:02:43;;;;;;;7.65;6.97;;;;;;;13.03;72.18;102821.53;5326266;28;20106;-72
2022/11/12 12:05:23;;;;;;;50.50;45.20;;;;;;;13.13;71.81;102820.00;5326802;28;20127;-74
2022/11/12 12:08:30;;;;;;;15.35;13.73;;;;;;;13.22;74.59;102810.94;5328454;28;20070;-76
2022/11/12 12:11:09;;;;;;;;;;;;;;;13.23;72.53;102803.41;5329033;28;20051;-77
2022/11/12 12:13:43;;;;;;;8.65;6.10;;;;;;;13.29;71.25;102802.38;5324433;28;19916;-78
2022/11/12 12:16:40;;;;;;;7.88;5.72;;;;;;;13.35;71.93;102798.56;5327826;28;20084;-77
2022/11/12 12:19:33;;;;;;;6.97;6.38;;;;;;;13.40;71.86;102793.06;5323974;28;20105;-77
2022/11/12 12:22:12;;;;;;;7.28;6.03;;;;;;;13.58;72.13;102786.28;5328103;28;20027;-77
2022/11/12 12:24:43;;;;;;;7.18;6.15;;;;;;;13.55;71.07;102780.38;5324810;28;20027;-77
2022/11/12 12:27:19;;;;;;;7.63;6.82;;;;;;;13.61;70.82;102776.56;5311008;28;20036;-76
2022/11/12 12:30:02;;;;;;;9.75;7.07;;;;;;;13.65;71.01;102777.69;5319318;28;20023;-75
2022/11/12 12:32:40;;;;;;;7.55;6.43;;;;;;;13.62;70.49;102772.66;5317516;28;20462;-79
2022/11/12 12:35:23;;;;;;;7.35;6.65;;;;;;;13.70;70.70;102772.16;5327351;28;20024;-77
2022/11/12 12:37:55;;;;;;;9.18;8.18;;;;;;;13.86;75.43;102768.44;5306407;28;20032;-81
2022/11/12 12:40:44;;;;;;;12.60;11.25;;;;;;;13.89;73.43;102775.41;5305771;28;20455;-77
2022/11/12 12:43:22;;;;;;;9.00;7.05;;;;;;;13.77;71.32;102775.59;5306699;28;20045;-78
2022/11/12 12:45:56;;;;;;;8.35;7.50;;;;;;;13.85;72.55;102769.50;5313660;28;20040;-81
2022/11/12 12:48:33;;;;;;;9.77;7.57;;;;;;;13.85;71.81;102772.31;5327245;28;20467;-78
2022/11/12 12:51:05;;;;;;;8.40;6.70;;;;;;;13.88;71.16;102771.81;5326785;28;20038;-74
2022/11/12 12:53:36;;;;;;;7.40;5.63;;;;;;;13.91;72.83;102770.44;5323040;28;20023;-74
2022/11/12 12:56:11;;;;;;;10.13;5.75;;;;;;;14.01;74.09;102762.16;5306902;28;20032;-78
2022/11/12 12:58:45;;;;;;;18.13;11.93;;;;;;;13.88;72.17;102757.00;5306402;28;20046;-77
2022/11/12 13:01:20;;;;;;;15.43;7.75;;;;;;;13.96;71.58;102755.66;5316915;28;20081;-79
2022/11/12 13:03:58;;;;;;;9.05;6.25;;;;;;;13.97;71.68;102752.63;5321195;28;20031;-78
2022/11/12 13:06:36;;;;;;;6.70;5.82;;;;;;;13.98;71.70;102747.88;5324920;28;20051;-78
2022/11/12 13:09:16;;;;;;;6.57;5.90;;;;;;;14.09;71.49;102750.50;5316352;28;20020;-77
2022/11/12 13:14:35;;;;;;;7.03;6.32;;;;;;;14.14;71.47;102750.53;5323904;28;20089;-74
2022/11/12 13:17:11;;;;;;;9.35;6.88;;;;;;;14.10;71.42;102746.56;5321992;28;20043;-73
2022/11/12 13:19:57;;;;;;;7.03;6.15;;;;;;;14.23;74.24;102748.06;5310820;28;20120;-75
2022/11/12 13:22:31;;;;;;;11.98;8.85;;;;;;;14.20;72.83;102742.19;5319333;28;20120;-74
2022/11/12 13:25:10;;;;;;;8.65;7.57;;;;;;;14.25;72.03;102736.66;5314812;28;20385;-75
2022/11/12 13:27:44;;;;;;;7.97;7.25;;;;;;;14.43;73.11;102730.63;5327194;28;20114;-75
2022/11/12 13:30:21;;;;;;;10.93;8.70;;;;;;;14.44;71.62;102732.28;5311310;28;20478;-76
2022/11/12 13:32:54;;;;;;;11.00;9.38;;;;;;;14.45;70.74;102728.41;5305443;28;20471;-75
2022/11/12 13:35:28;;;;;;;14.25;9.82;;;;;;;14.49;70.77;102725.91;5304917;28;20036;-73
2022/11/12 13:38:11;;;;;;;14.38;9.57;;;;;;;14.57;70.84;102731.00;5320845;28;20028;-73
2022/11/12 13:40:55;;;;;;;12.07;7.82;;;;;;;14.71;70.77;102729.41;5325923;28;20381;-75
2022/11/12 13:43:39;;;;;;;8.50;7.70;;;;;;;14.78;70.38;102734.75;5320788;28;20036;-76
2022/11/12 13:46:26;;;;;;;10.95;9.73;;;;;;;14.99;69.58;102736.50;5308210;28;20189;-76
2022/11/12 13:49:00;;;;;;;10.20;8.95;;;;;;;15.10;69.96;102737.38;5305520;28;20379;-74
2022/11/12 13:51:45;;;;;;;10.07;9.07;;;;;;;15.12;70.01;102735.16;5305683;28;20016;-77
2022/11/12 13:54:24;;;;;;;11.15;9.93;;;;;;;15.22;69.66;102734.34;5315621;28;20034;-74
2022/11/12 13:56:55;;;;;;;12.40;9.73;;;;;;;15.36;69.59;102726.25;5321515;28;20057;-75
2022/11/12 13:59:26;;;;;;;11.73;10.52;;;;;;;15.14;69.41;102726.50;5320289;28;20080;-76
2022/11/12 14:02:04;;;;;;;13.05;10.70;;;;;;;15.19;69.60;102735.72;5326611;27;20020;-75
2022/11/12 14:04:35;;;;;;;12.80;11.35;;;;;;;15.10;69.34;102734.56;5326857;28;20051;-79
2022/11/12 14:07:36;;;;;;;13.02;11.63;;;;;;;15.28;69.67;102738.81;5327374;28;20032;-79
2022/11/12 14:10:31;;;;;;;14.63;11.88;;;;;;;15.34;69.59;102739.66;5324988;28;20106;-74
2022/11/12 14:13:28;;;;;;;12.50;11.20;;;;;;;15.43;68.68;102746.41;5317155;28;20443;-75
2022/11/12 14:16:10;;;;;;;11.23;10.02;;;;;;;15.46;68.78;102751.44;5324533;28;20027;-77
2022/11/12 14:19:01;;;;;;;10.20;9.20;;;;;;;15.50;68.75;102740.56;5322422;28;20022;-79
2022/11/12 14:21:33;;;;;;;10.75;9.65;;;;;;;15.50;69.10;102733.00;5325215;28;20080;-71
2022/11/12 14:24:13;;;;;;;11.10;10.10;;;;;;;15.48;69.02;102726.00;5324856;28;20020;-75
2022/11/12 14:26:44;;;;;;;12.00;10.00;;;;;;;15.36;68.95;102724.28;5324832;28;20023;-77
2022/11/12 14:29:17;;;;;;;11.38;10.27;;;;;;;15.36;68.94;102724.28;5324950;28;20377;-74
2022/11/12 14:31:59;;;;;;;46.30;41.38;;;;;;;15.18;69.81;102719.22;5323150;28;20155;-74
2022/11/12 14:34:33;;;;;;;19.67;16.50;;;;;;;15.06;70.25;102713.91;5313588;28;20016;-73
2022/11/12 14:37:04;;;;;;;15.40;10.88;;;;;;;15.07;71.32;102706.34;5325116;28;20103;-70
2022/11/12 14:39:41;;;;;;;11.05;9.93;;;;;;;14.92;71.76;102701.56;5318777;28;20127;-71
2022/11/12 14:42:14;;;;;;;11.85;10.70;;;;;;;14.73;72.48;102707.63;5303647;28;20058;-72
2022/11/12 14:44:45;;;;;;;10.88;9.80;;;;;;;14.74;73.07;102700.09;5315959;28;20039;-72
2022/11/12 14:47:17;;;;;;;12.82;10.95;;;;;;;14.61;73.35;102703.38;5319909;28;20024;-73
2022/11/12 14:49:48;;;;;;;13.77;10.55;;;;;;;14.56;73.93;102702.25;5305198;28;20099;-73
2022/11/12 14:52:34;;;;;;;15.73;12.63;;;;;;;14.49;74.36;102707.19;5303902;28;20035;-73
2022/11/12 14:55:11;;;;;;;10.67;9.57;;;;;;;14.51;74.56;102713.34;5303179;28;20028;-73
2022/11/12 14:57:42;;;;;;;62.53;56.13;;;;;;;14.45;74.66;102708.84;5319990;28;20289;-74
2022/11/12 15:00:19;;;;;;;15.18;13.68;;;;;;;14.36;75.19;102716.88;5312902;28;20054;-73
2022/11/12 15:02:50;;;;;;;14.00;12.50;;;;;;;14.34;75.26;102709.88;5312370;28;20035;-71
2022/11/12 15:05:22;;;;;;;18.70;14.88;;;;;;;14.23;75.41;102717.38;5317300;28;20436;-72
2022/11/12 15:08:03;;;;;;;14.70;13.20;;;;;;;14.27;75.88;102706.53;5323595;28;20031;-74
2022/11/12 15:10:41;;;;;;;18.58;16.40;;;;;;;14.18;76.11;102700.59;5305655;28;20036;-73
2022/11/12 15:13:17;;;;;;;17.05;15.35;;;;;;;14.16;76.80;102705.59;5306618;28;20084;-77
2022/11/12 15:16:02;;;;;;;16.15;14.52;;;;;;;14.22;77.68;102710.13;5303786;28;20568;-75
2022/11/12 15:18:35;;;;;;;17.13;14.90;;;;;;;14.10;76.90;102706.69;5310841;28;20498;-70
2022/11/12 15:21:19;;;;;;;17.23;14.25;;;;;;;14.09;77.56;102705.84;5325224;28;20379;-75
2022/11/12 15:23:53;;;;;;;13.88;12.55;;;;;;;14.01;77.64;102697.13;5326102;28;20028;-77
2022/11/12 15:26:34;;;;;;;12.75;11.52;;;;;;;14.00;77.87;102709.41;5325597;28;20028;-77
2022/11/12 15:29:09;;;;;;;14.77;12.45;;;;;;;14.16;79.34;102700.00;5321263;28;20030;-75
2022/11/12 15:31:49;;;;;;;13.65;12.25;;;;;;;13.86;78.89;102698.69;5322674;28;20032;-72
2022/11/12 15:34:26;;;;;;;13.52;11.43;;;;;;;14.04;79.16;102696.59;5328957;28;20035;-74
2022/11/12 15:37:06;;;;;;;12.38;11.18;;;;;;;14.05;79.58;102693.53;5328103;28;20027;-76
2022/11/12 15:39:42;;;;;;;12.73;11.25;;;;;;;13.88;78.47;102682.56;5329135;28;20027;-76
2022/11/12 15:42:37;;;;;;;14.32;12.68;;;;;;;13.94;79.29;102696.53;5328698;28;20024;-76
2022/11/12 15:45:20;;;;;;;12.60;11.20;;;;;;;13.98;80.26;102695.69;5328295;28;20024;-76
2022/11/12 15:47:51;;;;;;;13.38;11.35;;;;;;;13.93;79.83;102692.88;5328582;28;20027;-76
2022/11/12 15:50:23;;;;;;;14.57;13.05;;;;;;;13.84;80.04;102692.53;5328671;28;20035;-76
2022/11/12 15:52:54;;;;;;;15.43;12.55;;;;;;;13.85;80.16;102687.81;5326816;28;20027;-76
2022/11/12 15:55:26;;;;;;;16.77;14.52;;;;;;;13.60;80.25;102686.50;5313146;28;20061;-78
2022/11/12 15:57:57;;;;;;;22.73;20.67;;;;;;;13.53;81.04;102687.84;5310167;28;20023;-72
2022/11/12 16:00:35;;;;;;;22.38;20.08;;;;;;;13.43;81.33;102685.78;5328261;28;20378;-73
2022/11/12 16:03:20;;;;;;;23.13;20.73;;;;;;;13.38;81.69;102682.94;5327898;28;20023;-73
2022/11/12 16:05:52;;;;;;;19.95;16.50;;;;;;;13.19;82.14;102682.44;5327177;28;20379;-75
2022/11/12 16:08:23;;;;;;;18.63;15.27;;;;;;;13.10;82.53;102681.25;5328344;28;20065;-77
2022/11/12 16:10:54;;;;;;;16.10;13.13;;;;;;;13.08;82.71;102666.72;5319181;28;20455;-76
2022/11/12 16:13:29;;;;;;;15.15;11.98;;;;;;;12.99;82.63;102672.78;5306493;28;20157;-75
2022/11/12 16:16:05;;;;;;;14.05;11.75;;;;;;;12.92;83.41;102669.34;5309988;28;20030;-72
2022/11/12 16:18:36;;;;;;;;;;;;;;;13.07;82.09;102668.69;5310693;28;20026;-73
2022/11/12 16:21:08;;;;;;;30.07;25.83;;;;;;;12.69;83.46;102666.84;5315228;27;20293;-73
2022/11/12 16:23:39;;;;;;;21.27;17.08;;;;;;;12.70;84.08;102671.31;5306918;28;20289;-74
2022/11/12 16:26:14;;;;;;;17.33;15.45;;;;;;;12.56;84.10;102671.72;5308501;28;20023;-71
2022/11/12 16:28:46;;;;;;;15.30;12.07;;;;;;;12.62;84.58;102673.44;5326762;28;20140;-72
2022/11/12 16:31:18;;;;;;;17.92;13.07;;;;;;;12.51;84.72;102673.59;5326611;28;20378;-73
2022/11/12 16:33:50;;;;;;;23.40;21.00;;;;;;;12.49;85.57;102664.66;5326565;28;20116;-69
2022/11/12 16:36:21;;;;;;;26.73;23.45;;;;;;;12.50;85.46;102669.97;5327059;28;20429;-69
